createdAt,value
2022-08-22T00:00:24.942Z,20.62
2022-08-22T00:01:10.830Z,20.62
2022-08-22T00:02:05.250Z,20.62
2022-08-22T00:02:42.589Z,21.07
2022-08-22T00:02:44.828Z,21.20
2022-08-22T00:02:47.156Z,20.91
2022-08-22T00:02:53.912Z,21.06
2022-08-22T00:02:55.204Z,20.69
2022-08-22T00:02:55.559Z,20.87
2022-08-22T00:03:01.343Z,20.85
2022-08-22T00:03:02.491Z,21.00
2022-08-22T00:03:07.585Z,20.96
2022-08-22T00:03:09.681Z,20.68
2022-08-22T00:04:23.338Z,20.70
2022-08-22T00:05:14.144Z,20.73
2022-08-22T00:06:24.340Z,20.56
2022-08-22T00:07:08.412Z,20.50
2022-08-22T00:08:09.513Z,20.51
2022-08-22T00:08:52.658Z,20.55
2022-08-22T00:09:36.542Z,20.57
2022-08-22T00:10:25.544Z,20.59
2022-08-22T00:11:09.983Z,20.48
2022-08-22T00:12:29.516Z,20.56
2022-08-22T00:13:12.138Z,20.60
2022-08-22T00:14:20.806Z,20.58
2022-08-22T00:15:06.962Z,20.60
2022-08-22T00:15:44.724Z,20.66
2022-08-22T00:16:28.966Z,20.70
2022-08-22T00:17:04.892Z,20.62
2022-08-22T00:17:53.302Z,20.48
2022-08-22T00:18:38.823Z,20.53
2022-08-22T00:19:44.547Z,20.60
2022-08-22T00:20:41.532Z,20.70
2022-08-22T00:21:26.210Z,20.49
2022-08-22T00:22:51.245Z,20.42
2022-08-22T00:23:55.745Z,20.43
2022-08-22T00:25:07.396Z,20.50
2022-08-22T00:26:06.943Z,20.61
2022-08-22T00:26:53.550Z,20.51
2022-08-22T00:27:53.493Z,20.40
2022-08-22T00:28:28.876Z,20.42
2022-08-22T00:29:19.599Z,20.41
2022-08-22T00:29:57.228Z,20.36
2022-08-22T00:30:32.754Z,20.34
2022-08-22T00:31:13.804Z,20.36
2022-08-22T00:32:15.872Z,20.24
2022-08-22T00:33:02.577Z,20.18
2022-08-22T00:33:45.876Z,20.24
2022-08-22T00:34:22.426Z,20.30
2022-08-22T00:35:02.655Z,20.24
2022-08-22T00:35:48.261Z,20.17
2022-08-22T00:36:33.693Z,20.24
2022-08-22T00:37:17.012Z,20.24
2022-08-22T00:38:09.298Z,20.22
2022-08-22T00:38:52.141Z,20.24
2022-08-22T00:39:43.795Z,20.29
2022-08-22T00:40:24.897Z,20.28
2022-08-22T00:41:12.236Z,20.29
2022-08-22T00:42:29.393Z,20.32
2022-08-22T00:43:11.467Z,20.39
2022-08-22T00:43:49.144Z,20.30
2022-08-22T00:44:36.191Z,20.29
2022-08-22T00:45:29.290Z,20.34
2022-08-22T00:46:34.158Z,20.24
2022-08-22T00:47:45.048Z,20.23
2022-08-22T00:48:32.800Z,20.18
2022-08-22T00:49:23.030Z,20.21
2022-08-22T00:50:12.751Z,20.25
2022-08-22T00:50:50.552Z,20.22
2022-08-22T00:51:54.977Z,20.16
2022-08-22T00:52:47.063Z,20.02
2022-08-22T00:53:27.514Z,20.04
2022-08-22T00:54:47.032Z,20.10
2022-08-22T00:56:03.217Z,20.16
2022-08-22T00:56:38.409Z,20.15
2022-08-22T00:57:22.460Z,20.21
2022-08-22T00:58:06.446Z,20.21
2022-08-22T00:59:23.074Z,20.21
2022-08-22T01:00:09.427Z,20.24
2022-08-22T01:00:54.476Z,20.20
2022-08-22T01:01:32.545Z,20.16
2022-08-22T01:02:21.827Z,20.21
2022-08-22T01:03:16.795Z,20.26
2022-08-22T01:04:07.552Z,20.25
2022-08-22T01:04:58.401Z,20.23
2022-08-22T01:05:42.252Z,20.29
2022-08-22T01:06:23.268Z,20.30
2022-08-22T01:06:57.699Z,20.31
2022-08-22T01:07:44.049Z,20.30
2022-08-22T01:08:37.797Z,20.28
2022-08-22T01:09:15.998Z,20.26
2022-08-22T01:09:50.658Z,20.26
2022-08-22T01:11:01.396Z,20.24
2022-08-22T01:12:11.909Z,20.31
2022-08-22T01:12:53.182Z,20.25
2022-08-22T01:13:50.501Z,20.23
2022-08-22T01:14:37.963Z,20.28
2022-08-22T01:15:16.501Z,20.26
2022-08-22T01:15:53.454Z,20.21
2022-08-22T01:17:00.821Z,20.21
2022-08-22T01:17:32.712Z,20.14
2022-08-22T01:18:40.281Z,20.04
2022-08-22T01:19:33.038Z,19.95
2022-08-22T01:20:30.685Z,19.99
2022-08-22T01:21:28.568Z,20.05
2022-08-22T01:22:12.294Z,20.12
2022-08-22T01:22:59.278Z,19.98
2022-08-22T01:23:37.070Z,20.02
2022-08-22T01:24:31.100Z,20.02
2022-08-22T01:25:22.342Z,20.09
2022-08-22T01:26:23.015Z,20.02
2022-08-22T01:26:57.971Z,19.89
2022-08-22T01:27:44.919Z,19.89
2022-08-22T01:28:23.264Z,19.92
2022-08-22T01:29:14.622Z,19.89
2022-08-22T01:30:13.101Z,19.91
2022-08-22T01:30:57.056Z,20.01
2022-08-22T01:31:47.444Z,20.04
2022-08-22T01:32:56.814Z,20.08
2022-08-22T01:34:06.421Z,20.03
2022-08-22T01:34:54.431Z,19.98
2022-08-22T01:35:58.600Z,19.85
2022-08-22T01:36:57.984Z,19.93
2022-08-22T01:37:45.678Z,20.01
2022-08-22T01:38:42.010Z,20.02
2022-08-22T01:39:35.704Z,20.04
2022-08-22T01:40:19.796Z,20.01
2022-08-22T01:41:31.082Z,20.10
2022-08-22T01:42:05.783Z,20.17
2022-08-22T01:42:46.458Z,20.24
2022-08-22T01:43:21.023Z,20.22
2022-08-22T01:44:22.177Z,20.20
2022-08-22T01:45:15.076Z,20.18
2022-08-22T01:46:01.586Z,20.11
2022-08-22T01:46:44.994Z,20.16
2022-08-22T01:47:28.847Z,20.14
2022-08-22T01:48:14.297Z,20.18
2022-08-22T01:48:52.980Z,20.18
2022-08-22T01:49:37.511Z,20.24
2022-08-22T01:50:33.348Z,20.23
2022-08-22T01:51:33.264Z,20.22
2022-08-22T01:52:15.426Z,20.17
2022-08-22T01:53:16.273Z,20.18
2022-08-22T01:53:48.122Z,20.21
2022-08-22T01:54:45.312Z,20.23
2022-08-22T01:55:23.063Z,20.28
2022-08-22T01:56:21.485Z,20.31
2022-08-22T01:57:02.281Z,20.26
2022-08-22T01:58:01.100Z,20.15
2022-08-22T01:58:37.452Z,20.13
2022-08-22T01:59:15.922Z,20.19
2022-08-22T02:00:07.094Z,20.21
2022-08-22T02:01:20.471Z,20.26
2022-08-22T02:02:09.269Z,20.29
2022-08-22T02:02:53.331Z,20.23
2022-08-22T02:03:42.749Z,20.28
2022-08-22T02:04:17.758Z,20.28
2022-08-22T02:04:52.453Z,20.28
2022-08-22T02:05:33.693Z,20.23
2022-08-22T02:06:14.631Z,20.28
2022-08-22T02:07:31.567Z,20.29
2022-08-22T02:08:28.585Z,20.32
2022-08-22T02:09:41.950Z,20.29
2022-08-22T02:10:40.471Z,20.27
2022-08-22T02:11:35.156Z,20.30
2022-08-22T02:12:22.269Z,20.30
2022-08-22T02:13:05.849Z,20.33
2022-08-22T02:13:52.018Z,20.28
2022-08-22T02:14:44.125Z,20.16
2022-08-22T02:15:18.699Z,20.23
2022-08-22T02:16:06.712Z,20.24
2022-08-22T02:16:46.103Z,20.31
2022-08-22T02:17:28.308Z,20.28
2022-08-22T02:18:12.377Z,20.29
2022-08-22T02:19:00.312Z,20.30
2022-08-22T02:19:44.673Z,20.27
2022-08-22T02:20:28.776Z,20.15
2022-08-22T02:21:13.899Z,20.14
2022-08-22T02:22:25.809Z,20.17
2022-08-22T02:23:25.011Z,20.27
2022-08-22T02:24:03.469Z,20.24
2022-08-22T02:24:53.424Z,20.14
2022-08-22T02:25:47.118Z,20.15
2022-08-22T02:26:47.714Z,20.20
2022-08-22T02:27:49.233Z,20.21
2022-08-22T02:28:32.441Z,20.22
2022-08-22T02:29:14.264Z,20.24
2022-08-22T02:30:17.039Z,20.24
2022-08-22T02:31:00.584Z,20.22
2022-08-22T02:31:40.327Z,20.27
2022-08-22T02:32:46.970Z,20.26
2022-08-22T02:33:36.633Z,20.25
2022-08-22T02:34:37.861Z,20.28
2022-08-22T02:35:12.684Z,20.33
2022-08-22T02:35:54.674Z,20.35
2022-08-22T02:36:40.706Z,20.28
2022-08-22T02:37:30.057Z,20.30
2022-08-22T02:38:41.033Z,20.28
2022-08-22T02:39:28.031Z,20.30
2022-08-22T02:40:15.310Z,20.26
2022-08-22T02:41:00.498Z,20.26
2022-08-22T02:41:47.396Z,20.18
2022-08-22T02:42:46.717Z,20.22
2022-08-22T02:43:35.790Z,20.23
2022-08-22T02:44:21.144Z,20.21
2022-08-22T02:45:06.009Z,20.12
2022-08-22T02:45:45.909Z,20.04
2022-08-22T02:46:24.097Z,20.05
2022-08-22T02:47:05.567Z,20.04
2022-08-22T02:47:57.357Z,20.13
2022-08-22T02:48:58.745Z,20.15
2022-08-22T02:49:36.042Z,20.21
2022-08-22T02:50:47.592Z,20.22
2022-08-22T02:51:36.042Z,20.16
2022-08-22T02:52:18.885Z,20.18
2022-08-22T02:53:17.303Z,20.15
2022-08-22T02:54:09.038Z,20.08
2022-08-22T02:55:06.511Z,20.08
2022-08-22T02:56:03.927Z,20.07
2022-08-22T02:56:43.169Z,20.12
2022-08-22T02:57:39.342Z,20.15
2022-08-22T02:58:29.174Z,20.17
2022-08-22T02:59:16.597Z,20.10
2022-08-22T03:00:31.189Z,20.09
2022-08-22T03:01:36.550Z,20.13
2022-08-22T03:02:27.760Z,20.16
2022-08-22T03:03:00.953Z,20.16
2022-08-22T03:03:38.791Z,20.17
2022-08-22T03:04:42.937Z,20.13
2022-08-22T03:05:17.519Z,20.10
2022-08-22T03:06:01.072Z,20.10
2022-08-22T03:06:39.556Z,20.15
2022-08-22T03:07:20.505Z,20.09
2022-08-22T03:08:17.153Z,20.02
2022-08-22T03:09:16.667Z,20.06
2022-08-22T03:10:18.052Z,20.02
2022-08-22T03:11:10.664Z,20.05
2022-08-22T03:12:18.243Z,19.99
2022-08-22T03:13:10.989Z,20.00
2022-08-22T03:14:04.466Z,19.94
2022-08-22T03:14:47.487Z,19.89
2022-08-22T03:15:28.043Z,19.82
2022-08-22T03:16:10.516Z,19.90
2022-08-22T03:17:00.897Z,19.93
2022-08-22T03:17:56.822Z,19.93
2022-08-22T03:18:31.617Z,19.92
2022-08-22T03:19:03.499Z,19.87
2022-08-22T03:20:00.460Z,19.87
2022-08-22T03:21:14.758Z,19.83
2022-08-22T03:22:01.251Z,19.93
2022-08-22T03:23:13.095Z,19.94
2022-08-22T03:23:47.820Z,19.88
2022-08-22T03:24:31.769Z,19.83
2022-08-22T03:25:27.073Z,19.86
2022-08-22T03:26:26.879Z,19.94
2022-08-22T03:27:14.283Z,19.99
2022-08-22T03:28:11.745Z,20.05
2022-08-22T03:29:00.005Z,20.01
2022-08-22T03:29:44.849Z,20.03
2022-08-22T03:30:21.844Z,20.06
2022-08-22T03:31:01.477Z,19.97
2022-08-22T03:31:33.544Z,19.91
2022-08-22T03:32:10.574Z,19.78
2022-08-22T03:33:19.891Z,19.79
2022-08-22T03:34:22.988Z,19.83
2022-08-22T03:35:04.886Z,19.89
2022-08-22T03:36:13.745Z,19.95
2022-08-22T03:37:23.199Z,19.93
2022-08-22T03:38:11.141Z,19.99
2022-08-22T03:38:49.938Z,20.04
2022-08-22T03:39:43.631Z,20.02
2022-08-22T03:40:31.767Z,20.00
2022-08-22T03:41:12.701Z,20.00
2022-08-22T03:42:02.930Z,19.95
2022-08-22T03:42:40.906Z,19.94
2022-08-22T03:43:28.492Z,19.97
2022-08-22T03:44:12.690Z,20.00
2022-08-22T03:44:59.757Z,19.95
2022-08-22T03:45:43.203Z,19.89
2022-08-22T03:46:46.035Z,19.82
2022-08-22T03:47:23.520Z,19.92
2022-08-22T03:48:04.399Z,19.95
2022-08-22T03:48:45.320Z,20.05
2022-08-22T03:50:00.169Z,20.06
2022-08-22T03:50:56.548Z,20.04
2022-08-22T03:52:05.110Z,20.02
2022-08-22T03:53:10.418Z,19.96
2022-08-22T03:54:10.211Z,19.95
2022-08-22T03:55:05.090Z,20.05
2022-08-22T03:55:55.318Z,20.03
2022-08-22T03:57:14.769Z,19.98
2022-08-22T03:57:52.502Z,20.02
2022-08-22T03:58:33.316Z,20.03
2022-08-22T03:59:17.484Z,20.03
2022-08-22T04:00:05.240Z,20.09
2022-08-22T04:00:59.901Z,20.06
2022-08-22T04:01:58.644Z,20.07
2022-08-22T04:02:43.984Z,20.10
2022-08-22T04:03:38.304Z,20.13
2022-08-22T04:04:40.979Z,20.11
2022-08-22T04:05:14.263Z,20.12
2022-08-22T04:06:27.336Z,20.13
2022-08-22T04:07:46.514Z,20.13
2022-08-22T04:08:46.003Z,20.21
2022-08-22T04:09:43.928Z,20.12
2022-08-22T04:10:33.956Z,20.12
2022-08-22T04:11:36.383Z,20.16
2022-08-22T04:12:43.171Z,20.15
2022-08-22T04:13:52.808Z,20.14
2022-08-22T04:14:58.632Z,20.16
2022-08-22T04:15:42.519Z,20.26
2022-08-22T04:16:41.130Z,20.25
2022-08-22T04:18:06.959Z,20.23
2022-08-22T04:19:08.190Z,20.16
2022-08-22T04:19:49.155Z,20.22
2022-08-22T04:20:56.739Z,20.19
2022-08-22T04:22:11.408Z,20.28
2022-08-22T04:23:03.528Z,20.28
2022-08-22T04:23:44.721Z,20.31
2022-08-22T04:24:34.211Z,20.25
2022-08-22T04:25:23.416Z,20.25
2022-08-22T04:26:11.898Z,20.26
2022-08-22T04:27:05.993Z,20.27
2022-08-22T04:27:55.867Z,20.29
2022-08-22T04:28:43.387Z,20.27
2022-08-22T04:29:32.245Z,20.25
2022-08-22T04:30:32.956Z,20.29
2022-08-22T04:31:15.107Z,20.32
2022-08-22T04:32:22.096Z,20.35
2022-08-22T04:33:37.977Z,20.38
2022-08-22T04:34:22.415Z,20.43
2022-08-22T04:35:02.371Z,20.35
2022-08-22T04:35:55.367Z,20.40
2022-08-22T04:36:35.457Z,20.40
2022-08-22T04:37:17.964Z,20.36
2022-08-22T04:38:01.926Z,20.37
2022-08-22T04:38:48.827Z,20.38
2022-08-22T04:39:30.077Z,20.37
2022-08-22T04:40:11.463Z,20.38
2022-08-22T04:41:02.598Z,20.38
2022-08-22T04:42:31.290Z,20.43
2022-08-22T04:43:17.924Z,20.48
2022-08-22T04:44:05.745Z,20.51
2022-08-22T04:44:52.566Z,20.55
2022-08-22T04:45:51.600Z,20.58
2022-08-22T04:46:47.315Z,20.52
2022-08-22T04:47:37.537Z,20.43
2022-08-22T04:48:36.539Z,20.30
2022-08-22T04:49:24.838Z,20.38
2022-08-22T04:50:26.361Z,20.37
2022-08-22T04:51:05.455Z,20.31
2022-08-22T04:51:51.237Z,20.35
2022-08-22T04:52:49.270Z,20.39
2022-08-22T04:53:47.039Z,20.40
2022-08-22T04:54:32.916Z,20.53
2022-08-22T04:55:33.071Z,20.58
2022-08-22T04:56:47.924Z,20.65
2022-08-22T04:57:29.150Z,20.64
2022-08-22T04:58:22.237Z,20.69
2022-08-22T04:59:04.754Z,20.72
2022-08-22T04:59:37.167Z,20.75
2022-08-22T05:00:11.626Z,20.83
2022-08-22T05:01:07.671Z,20.84
2022-08-22T05:01:55.710Z,20.83
2022-08-22T05:02:28.220Z,20.81
2022-08-22T05:03:03.406Z,20.91
2022-08-22T05:03:45.060Z,21.01
2022-08-22T05:04:26.666Z,21.07
2022-08-22T05:05:13.240Z,21.11
2022-08-22T05:05:49.630Z,21.11
2022-08-22T05:06:26.569Z,21.15
2022-08-22T05:07:24.052Z,21.15
2022-08-22T05:08:00.566Z,21.13
2022-08-22T05:08:36.189Z,21.15
2022-08-22T05:09:16.472Z,21.18
2022-08-22T05:10:10.536Z,21.14
2022-08-22T05:10:47.087Z,21.08
2022-08-22T05:11:22.273Z,21.12
2022-08-22T05:12:01.034Z,21.14
2022-08-22T05:12:38.409Z,21.06
2022-08-22T05:13:18.287Z,21.03
2022-08-22T05:14:37.805Z,21.07
2022-08-22T05:15:23.249Z,21.11
2022-08-22T05:15:59.729Z,21.17
2022-08-22T05:16:40.765Z,21.21
2022-08-22T05:17:17.622Z,21.24
2022-08-22T05:17:55.800Z,21.27
2022-08-22T05:18:43.624Z,21.33
2022-08-22T05:19:28.451Z,21.33
2022-08-22T05:20:09.054Z,21.32
2022-08-22T05:20:45.260Z,21.35
2022-08-22T05:21:23.372Z,21.33
2022-08-22T05:22:00.897Z,21.35
2022-08-22T05:22:40.021Z,21.27
2022-08-22T05:23:19.039Z,21.26
2022-08-22T05:24:11.624Z,21.38
2022-08-22T05:24:48.509Z,21.34
2022-08-22T05:25:36.317Z,21.38
2022-08-22T05:26:11.045Z,21.35
2022-08-22T05:26:50.481Z,21.31
2022-08-22T05:27:31.552Z,21.33
2022-08-22T05:28:20.750Z,21.29
2022-08-22T05:29:02.059Z,21.37
2022-08-22T05:29:34.685Z,21.35
2022-08-22T05:30:16.251Z,21.39
2022-08-22T05:30:48.934Z,21.51
2022-08-22T05:31:30.107Z,21.54
2022-08-22T05:32:11.067Z,21.46
2022-08-22T05:32:54.608Z,21.38
2022-08-22T05:33:46.760Z,21.41
2022-08-22T05:34:26.568Z,21.42
2022-08-22T05:35:02.128Z,21.40
2022-08-22T05:35:46.035Z,21.38
2022-08-22T05:36:32.469Z,21.19
2022-08-22T05:37:20.805Z,21.28
2022-08-22T05:37:56.002Z,21.22
2022-08-22T05:38:34.492Z,21.21
2022-08-22T05:39:13.391Z,21.28
2022-08-22T05:39:49.812Z,21.33
2022-08-22T05:40:28.198Z,21.36
2022-08-22T05:41:07.358Z,21.38
2022-08-22T05:41:41.147Z,21.36
2022-08-22T05:42:26.485Z,21.32
2022-08-22T05:42:59.048Z,21.25
2022-08-22T05:43:34.955Z,21.18
2022-08-22T05:44:34.274Z,21.13
2022-08-22T05:45:12.287Z,21.05
2022-08-22T05:45:47.397Z,21.05
2022-08-22T05:46:27.272Z,21.14
2022-08-22T05:47:14.104Z,21.10
2022-08-22T05:48:03.344Z,21.13
2022-08-22T05:48:43.629Z,21.13
2022-08-22T05:49:49.749Z,21.20
2022-08-22T05:50:34.808Z,21.18
2022-08-22T05:51:21.707Z,21.21
2022-08-22T05:52:25.628Z,21.19
2022-08-22T05:53:10.182Z,21.23
2022-08-22T05:53:48.458Z,21.18
2022-08-22T05:54:33.888Z,21.20
2022-08-22T05:55:27.135Z,21.23
2022-08-22T05:56:08.793Z,21.24
2022-08-22T05:57:10.415Z,21.26
2022-08-22T05:57:48.542Z,21.32
2022-08-22T05:58:42.709Z,21.30
2022-08-22T05:59:43.746Z,21.28
2022-08-22T06:00:22.090Z,21.23
2022-08-22T06:01:03.374Z,21.15
2022-08-22T06:02:07.707Z,21.22
2022-08-22T06:02:56.187Z,21.30
2022-08-22T06:03:38.897Z,21.30
2022-08-22T06:04:39.202Z,21.27
2022-08-22T06:05:12.416Z,21.31
2022-08-22T06:05:50.040Z,21.35
2022-08-22T06:06:25.540Z,21.44
2022-08-22T06:07:05.085Z,21.44
2022-08-22T06:07:49.353Z,21.39
2022-08-22T06:08:48.642Z,21.40
2022-08-22T06:09:43.729Z,21.43
2022-08-22T06:10:25.870Z,21.39
2022-08-22T06:11:04.379Z,21.42
2022-08-22T06:11:47.302Z,21.49
2022-08-22T06:12:26.513Z,21.49
2022-08-22T06:13:41.500Z,21.48
2022-08-22T06:14:40.659Z,21.53
2022-08-22T06:15:27.578Z,21.57
2022-08-22T06:16:01.556Z,21.60
2022-08-22T06:16:47.314Z,21.59
2022-08-22T06:17:25.921Z,21.59
2022-08-22T06:18:03.415Z,21.58
2022-08-22T06:18:38.491Z,21.56
2022-08-22T06:19:19.971Z,21.59
2022-08-22T06:19:54.210Z,21.63
2022-08-22T06:20:37.454Z,21.65
2022-08-22T06:21:21.064Z,21.45
2022-08-22T06:21:55.077Z,21.40
2022-08-22T06:22:31.375Z,21.43
2022-08-22T06:23:07.388Z,21.39
2022-08-22T06:23:53.253Z,21.43
2022-08-22T06:24:27.676Z,21.41
2022-08-22T06:25:27.758Z,21.33
2022-08-22T06:26:01.443Z,21.38
2022-08-22T06:26:40.243Z,21.36
2022-08-22T06:27:16.220Z,21.34
2022-08-22T06:27:50.891Z,21.33
2022-08-22T06:28:26.559Z,21.39
2022-08-22T06:29:01.079Z,21.43
2022-08-22T06:29:36.246Z,21.43
2022-08-22T06:30:12.858Z,21.48
2022-08-22T06:30:46.205Z,21.55
2022-08-22T06:31:28.017Z,21.55
2022-08-22T06:32:04.174Z,21.54
2022-08-22T06:32:59.985Z,21.66
2022-08-22T06:33:38.516Z,21.57
2022-08-22T06:34:24.612Z,21.63
2022-08-22T06:35:10.665Z,21.61
2022-08-22T06:36:07.936Z,21.49
2022-08-22T06:36:44.503Z,21.44
2022-08-22T06:37:34.237Z,21.52
2022-08-22T06:38:06.477Z,21.54
2022-08-22T06:39:08.117Z,21.54
2022-08-22T06:39:44.144Z,21.56
2022-08-22T06:40:17.800Z,21.59
2022-08-22T06:40:54.447Z,21.51
2022-08-22T06:41:30.315Z,21.46
2022-08-22T06:42:12.235Z,21.48
2022-08-22T06:42:50.975Z,21.52
2022-08-22T06:43:24.982Z,21.61
2022-08-22T06:43:59.215Z,21.66
2022-08-22T06:44:35.885Z,21.70
2022-08-22T06:45:10.786Z,21.66
2022-08-22T06:45:43.025Z,21.65
2022-08-22T06:46:18.894Z,21.65
2022-08-22T06:46:54.099Z,21.59
2022-08-22T06:47:33.602Z,21.44
2022-08-22T06:48:38.272Z,21.55
2022-08-22T06:49:11.986Z,21.58
2022-08-22T06:49:45.755Z,21.61
2022-08-22T06:50:45.495Z,21.67
2022-08-22T06:51:20.372Z,21.75
2022-08-22T06:52:03.250Z,21.71
2022-08-22T06:53:07.529Z,21.68
2022-08-22T06:53:48.257Z,21.73
2022-08-22T06:54:28.681Z,21.76
2022-08-22T06:55:07.459Z,21.85
2022-08-22T06:55:43.437Z,21.93
2022-08-22T06:56:25.621Z,21.95
2022-08-22T06:56:58.038Z,21.98
2022-08-22T06:57:36.142Z,21.92
2022-08-22T06:58:21.769Z,21.81
2022-08-22T06:58:57.369Z,21.97
2022-08-22T06:59:32.694Z,21.80
2022-08-22T07:00:13.290Z,21.76
2022-08-22T07:00:53.525Z,21.85
2022-08-22T07:01:46.597Z,21.97
2022-08-22T07:02:41.271Z,22.10
2022-08-22T07:03:35.199Z,22.25
2022-08-22T07:04:10.279Z,22.35
2022-08-22T07:04:42.851Z,22.34
2022-08-22T07:05:39.656Z,22.34
2022-08-22T07:06:39.215Z,22.34
2022-08-22T07:07:11.175Z,22.41
2022-08-22T07:07:43.365Z,22.37
2022-08-22T07:08:19.914Z,22.37
2022-08-22T07:08:55.904Z,22.29
2022-08-22T07:09:34.747Z,22.17
2022-08-22T07:10:07.367Z,22.06
2022-08-22T07:10:55.744Z,22.03
2022-08-22T07:11:31.199Z,22.09
2022-08-22T07:12:11.093Z,22.12
2022-08-22T07:12:50.902Z,22.01
2022-08-22T07:13:25.275Z,22.00
2022-08-22T07:14:08.203Z,21.99
2022-08-22T07:14:45.000Z,21.99
2022-08-22T07:15:32.479Z,21.87
2022-08-22T07:16:08.389Z,21.88
2022-08-22T07:16:58.029Z,21.72
2022-08-22T07:17:32.824Z,21.76
2022-08-22T07:18:08.888Z,21.83
2022-08-22T07:18:50.423Z,21.85
2022-08-22T07:19:30.510Z,21.85
2022-08-22T07:20:27.003Z,21.89
2022-08-22T07:21:07.315Z,21.83
2022-08-22T07:21:45.829Z,21.83
2022-08-22T07:22:26.955Z,21.90
2022-08-22T07:23:02.950Z,22.04
2022-08-22T07:23:40.542Z,22.04
2022-08-22T07:24:26.028Z,22.05
2022-08-22T07:25:11.121Z,22.09
2022-08-22T07:25:52.642Z,22.13
2022-08-22T07:26:24.785Z,22.11
2022-08-22T07:27:39.972Z,22.10
2022-08-22T07:28:51.247Z,22.08
2022-08-22T07:29:59.025Z,22.08
2022-08-22T07:31:02.006Z,22.02
2022-08-22T07:31:57.984Z,22.08
2022-08-22T07:32:42.053Z,22.10
2022-08-22T07:33:51.710Z,22.18
2022-08-22T07:34:32.413Z,22.20
2022-08-22T07:35:21.693Z,22.20
2022-08-22T07:36:01.725Z,22.18
2022-08-22T07:36:39.474Z,22.22
2022-08-22T07:37:28.165Z,22.28
2022-08-22T07:38:32.751Z,22.32
2022-08-22T07:39:37.582Z,22.33
2022-08-22T07:40:28.301Z,22.18
2022-08-22T07:41:15.629Z,22.15
2022-08-22T07:41:59.603Z,22.14
2022-08-22T07:42:43.552Z,22.03
2022-08-22T07:43:40.422Z,22.15
2022-08-22T07:44:23.154Z,22.19
2022-08-22T07:45:09.354Z,22.22
2022-08-22T07:45:52.189Z,22.26
2022-08-22T07:46:35.147Z,22.32
2022-08-22T07:47:12.654Z,22.34
2022-08-22T07:48:08.286Z,22.34
2022-08-22T07:49:08.163Z,22.34
2022-08-22T07:49:59.902Z,22.26
2022-08-22T07:50:34.945Z,22.37
2022-08-22T07:51:15.388Z,22.45
2022-08-22T07:51:59.296Z,22.48
2022-08-22T07:52:44.816Z,22.47
2022-08-22T07:53:25.381Z,22.53
2022-08-22T07:54:02.588Z,22.53
2022-08-22T07:54:45.524Z,22.52
2022-08-22T07:55:24.050Z,22.53
2022-08-22T07:55:58.645Z,22.59
2022-08-22T07:56:57.734Z,22.60
2022-08-22T07:57:32.670Z,22.75
2022-08-22T07:58:07.956Z,22.85
2022-08-22T07:58:42.435Z,22.84
2022-08-22T07:59:18.963Z,22.66
2022-08-22T07:59:56.677Z,22.67
2022-08-22T08:00:31.562Z,22.77
2022-08-22T08:01:03.966Z,22.82
2022-08-22T08:01:37.722Z,22.88
2022-08-22T08:02:14.116Z,22.89
2022-08-22T08:02:51.037Z,22.91
2022-08-22T08:03:25.732Z,22.90
2022-08-22T08:04:04.883Z,22.90
2022-08-22T08:04:40.594Z,22.95
2022-08-22T08:05:15.196Z,22.99
2022-08-22T08:05:47.539Z,23.00
2022-08-22T08:06:23.338Z,23.11
2022-08-22T08:06:59.864Z,23.11
2022-08-22T08:07:32.493Z,23.29
2022-08-22T08:08:25.890Z,23.40
2022-08-22T08:08:58.432Z,23.57
2022-08-22T08:09:34.626Z,23.64
2022-08-22T08:10:14.390Z,23.69
2022-08-22T08:10:50.755Z,23.75
2022-08-22T08:11:26.495Z,23.78
2022-08-22T08:12:00.513Z,23.90
2022-08-22T08:12:39.928Z,23.94
2022-08-22T08:13:21.917Z,24.01
2022-08-22T08:13:59.343Z,24.15
2022-08-22T08:14:35.786Z,24.21
2022-08-22T08:15:12.509Z,24.26
2022-08-22T08:15:45.886Z,24.32
2022-08-22T08:16:21.449Z,24.32
2022-08-22T08:17:00.886Z,24.35
2022-08-22T08:17:35.732Z,24.49
2022-08-22T08:18:21.957Z,24.53
2022-08-22T08:18:58.019Z,24.49
2022-08-22T08:19:33.456Z,24.56
2022-08-22T08:20:11.919Z,24.65
2022-08-22T08:20:43.942Z,24.63
2022-08-22T08:21:39.120Z,24.65
2022-08-22T08:22:22.971Z,24.49
2022-08-22T08:22:56.548Z,24.43
2022-08-22T08:23:39.069Z,24.52
2022-08-22T08:24:16.362Z,24.50
2022-08-22T08:24:50.756Z,24.65
2022-08-22T08:25:27.541Z,24.58
2022-08-22T08:26:07.135Z,24.70
2022-08-22T08:27:03.935Z,24.79
2022-08-22T08:27:57.943Z,24.75
2022-08-22T08:28:37.573Z,24.67
2022-08-22T08:29:09.752Z,24.75
2022-08-22T08:29:56.351Z,24.58
2022-08-22T08:30:45.513Z,24.52
2022-08-22T08:31:27.799Z,24.32
2022-08-22T08:32:01.322Z,24.22
2022-08-22T08:32:37.662Z,24.25
2022-08-22T08:33:25.449Z,24.08
2022-08-22T08:34:06.601Z,24.05
2022-08-22T08:34:40.198Z,24.13
2022-08-22T08:35:25.682Z,24.03
2022-08-22T08:36:06.172Z,24.12
2022-08-22T08:36:52.492Z,24.04
2022-08-22T08:37:33.371Z,24.19
2022-08-22T08:38:11.553Z,24.33
2022-08-22T08:38:59.915Z,24.50
2022-08-22T08:39:35.028Z,24.82
2022-08-22T08:40:26.260Z,25.03
2022-08-22T08:41:10.242Z,24.91
2022-08-22T08:42:15.769Z,24.52
2022-08-22T08:43:29.828Z,24.68
2022-08-22T08:44:17.121Z,24.62
2022-08-22T08:45:09.162Z,24.64
2022-08-22T08:45:41.083Z,24.36
2022-08-22T08:46:14.285Z,24.26
2022-08-22T08:47:01.221Z,24.24
2022-08-22T08:47:33.071Z,24.24
2022-08-22T08:48:29.660Z,24.32
2022-08-22T08:49:35.033Z,24.34
2022-08-22T08:50:34.650Z,24.09
2022-08-22T08:51:15.766Z,24.08
2022-08-22T08:51:53.783Z,24.09
2022-08-22T08:53:27.744Z,24.09
2022-08-22T08:54:40.529Z,24.17
2022-08-22T08:55:59.143Z,24.17
2022-08-22T08:57:20.694Z,24.43
2022-08-22T08:58:12.950Z,24.66
2022-08-22T08:59:04.296Z,24.82
2022-08-22T09:00:18.066Z,24.71
2022-08-22T09:01:02.313Z,24.74
2022-08-22T09:01:40.275Z,24.76
2022-08-22T09:03:47.162Z,24.61
2022-08-22T09:04:44.401Z,24.61
2022-08-22T09:06:33.266Z,24.77
2022-08-22T09:07:42.956Z,24.71
2022-08-22T09:08:52.686Z,24.78
2022-08-22T09:09:46.267Z,24.74
2022-08-22T09:10:51.022Z,24.69
2022-08-22T09:11:44.451Z,24.49
2022-08-22T09:12:19.152Z,24.48
2022-08-22T09:13:20.540Z,24.35
2022-08-22T09:14:16.493Z,24.40
2022-08-22T09:15:14.622Z,24.44
2022-08-22T09:16:15.750Z,24.41
2022-08-22T09:17:15.900Z,24.44
2022-08-22T09:18:20.248Z,24.46
2022-08-22T09:18:58.453Z,24.48
2022-08-22T09:19:36.009Z,24.48
2022-08-22T09:20:32.806Z,24.44
2022-08-22T09:21:31.492Z,24.38
2022-08-22T09:22:50.870Z,24.24
2022-08-22T09:23:53.193Z,24.09
2022-08-22T09:24:47.012Z,24.10
2022-08-22T09:25:40.467Z,24.13
2022-08-22T09:27:03.798Z,24.19
2022-08-22T09:27:46.410Z,24.17
2022-08-22T09:28:29.244Z,23.93
2022-08-22T09:29:24.830Z,23.83
2022-08-22T09:30:11.534Z,24.02
2022-08-22T09:30:54.138Z,24.01
2022-08-22T09:31:44.941Z,24.05
2022-08-22T09:32:42.768Z,24.10
2022-08-22T09:33:20.332Z,24.08
2022-08-22T09:34:23.850Z,24.06
2022-08-22T09:35:18.674Z,24.20
2022-08-22T09:35:53.527Z,23.98
2022-08-22T09:36:31.303Z,23.88
2022-08-22T09:37:35.186Z,23.88
2022-08-22T09:38:48.674Z,23.95
2022-08-22T09:39:59.707Z,23.88
2022-08-22T09:40:44.445Z,23.90
2022-08-22T09:41:43.848Z,23.77
2022-08-22T09:42:46.406Z,23.85
2022-08-22T09:43:23.919Z,23.74
2022-08-22T09:44:19.436Z,23.64
2022-08-22T09:45:05.482Z,23.67
2022-08-22T09:45:45.433Z,23.68
2022-08-22T09:46:53.494Z,23.69
2022-08-22T09:47:32.634Z,23.57
2022-08-22T09:48:38.771Z,23.54
2022-08-22T09:49:23.505Z,23.67
2022-08-22T09:50:30.839Z,23.72
2022-08-22T09:51:31.871Z,23.59
2022-08-22T09:52:14.535Z,23.50
2022-08-22T09:53:06.128Z,23.57
2022-08-22T09:54:14.225Z,23.58
2022-08-22T09:55:11.814Z,23.63
2022-08-22T09:56:00.993Z,23.57
2022-08-22T09:57:01.371Z,23.49
2022-08-22T09:57:43.976Z,23.46
2022-08-22T09:58:52.869Z,23.45
2022-08-22T09:59:31.686Z,23.58
2022-08-22T10:00:05.589Z,23.61
2022-08-22T10:00:54.540Z,23.62
2022-08-22T10:02:16.828Z,23.64
2022-08-22T10:03:21.957Z,23.47
2022-08-22T10:04:19.553Z,23.57
2022-08-22T10:05:07.148Z,23.57
2022-08-22T10:05:52.882Z,23.66
2022-08-22T10:06:43.373Z,23.59
2022-08-22T10:07:51.539Z,23.59
2022-08-22T10:08:54.094Z,23.55
2022-08-22T10:09:55.013Z,23.49
2022-08-22T10:10:36.886Z,23.51
2022-08-22T10:11:19.509Z,23.67
2022-08-22T10:12:03.264Z,23.61
2022-08-22T10:13:10.241Z,23.72